createdAt,value
2023-05-14T00:00:27.836Z,75.05
2023-05-14T00:01:27.876Z,68.41
2023-05-14T00:02:27.939Z,75.80
2023-05-14T00:03:28.076Z,75.85
2023-05-14T00:04:28.025Z,74.84
2023-05-14T00:05:27.987Z,72.81
2023-05-14T00:06:27.992Z,74.46
2023-05-14T00:07:28.069Z,74.55
2023-05-14T00:08:28.058Z,71.25
2023-05-14T00:09:28.111Z,71.90
2023-05-14T00:10:28.135Z,75.61
2023-05-14T00:11:28.190Z,72.44
2023-05-14T00:12:28.152Z,69.48
2023-05-14T00:13:28.205Z,75.27
2023-05-14T00:14:28.218Z,74.25
2023-05-14T00:15:28.257Z,76.39
2023-05-14T00:16:28.337Z,76.96
2023-05-14T00:17:28.328Z,70.99
2023-05-14T00:18:28.361Z,73.82
2023-05-14T00:19:28.346Z,72.40
2023-05-14T00:20:28.429Z,72.39
2023-05-14T00:21:28.385Z,72.86
2023-05-14T00:22:28.412Z,73.59
2023-05-14T00:23:28.443Z,74.03
2023-05-14T00:24:28.456Z,72.73
2023-05-14T00:25:28.568Z,72.36
2023-05-14T00:26:28.515Z,74.95
2023-05-14T00:27:28.535Z,73.59
2023-05-14T00:28:28.548Z,73.78
2023-05-14T00:29:28.584Z,73.69
2023-05-14T00:30:28.609Z,75.69
2023-05-14T00:31:28.673Z,71.69
2023-05-14T00:32:28.661Z,73.15
2023-05-14T00:33:28.665Z,72.71
2023-05-14T00:34:28.696Z,71.94
2023-05-14T00:35:28.739Z,68.62
2023-05-14T00:36:28.747Z,75.21
2023-05-14T00:37:28.754Z,66.67
2023-05-14T00:38:28.781Z,68.91
2023-05-14T00:39:28.810Z,69.59
2023-05-14T00:40:28.831Z,71.53
2023-05-14T00:41:28.828Z,73.04
2023-05-14T00:42:28.879Z,72.98
2023-05-14T00:43:28.887Z,74.24
2023-05-14T00:44:28.930Z,74.07
2023-05-14T00:45:28.941Z,73.07
2023-05-14T00:46:29.032Z,71.88
2023-05-14T00:47:29.156Z,73.42
2023-05-14T00:48:29.040Z,68.69
2023-05-14T00:49:29.024Z,73.75
2023-05-14T00:50:29.064Z,73.21
2023-05-14T00:51:29.056Z,69.71
2023-05-14T00:52:29.089Z,69.77
2023-05-14T00:53:29.092Z,72.06
2023-05-14T00:54:29.092Z,73.65
2023-05-14T00:55:29.088Z,69.44
2023-05-14T00:56:29.112Z,69.06
2023-05-14T00:57:29.109Z,72.29
2023-05-14T00:58:29.139Z,67.49
2023-05-14T00:59:29.173Z,71.38
2023-05-14T01:00:29.260Z,68.55
2023-05-14T01:01:29.229Z,71.03
2023-05-14T01:02:29.299Z,69.77
2023-05-14T01:03:29.355Z,71.93
2023-05-14T01:04:29.259Z,68.82
2023-05-14T01:05:29.315Z,71.82
2023-05-14T01:06:29.312Z,70.73
2023-05-14T01:07:29.396Z,71.82
2023-05-14T01:08:29.387Z,70.38
2023-05-14T01:09:29.427Z,71.82
2023-05-14T01:10:29.446Z,69.57
2023-05-14T01:11:29.477Z,71.80
2023-05-14T01:12:29.475Z,72.76
2023-05-14T01:13:29.513Z,72.27
2023-05-14T01:14:29.506Z,72.21
2023-05-14T01:15:29.552Z,68.71
2023-05-14T01:16:29.598Z,70.92
2023-05-14T01:17:29.592Z,68.99
2023-05-14T01:18:29.700Z,71.90
2023-05-14T01:19:29.639Z,71.14
2023-05-14T01:20:29.656Z,70.11
2023-05-14T01:21:29.687Z,70.57
2023-05-14T01:22:29.738Z,71.78
2023-05-14T01:23:29.749Z,72.29
2023-05-14T01:24:29.781Z,65.21
2023-05-14T01:25:29.788Z,71.63
2023-05-14T01:26:29.817Z,70.36
2023-05-14T01:27:29.807Z,67.40
2023-05-14T01:28:29.827Z,69.90
2023-05-14T01:29:29.839Z,69.29
2023-05-14T01:30:29.864Z,70.11
2023-05-14T01:31:29.855Z,66.27
2023-05-14T01:32:29.962Z,66.79
2023-05-14T01:33:29.896Z,70.03
2023-05-14T01:34:29.929Z,67.34
2023-05-14T01:35:29.929Z,69.59
2023-05-14T01:36:29.957Z,71.10
2023-05-14T01:37:29.949Z,70.75
2023-05-14T01:38:29.962Z,68.27
2023-05-14T01:39:29.958Z,68.36
2023-05-14T01:40:29.993Z,70.03
2023-05-14T01:41:30.005Z,68.03
2023-05-14T01:42:30.035Z,68.48
2023-05-14T01:43:30.129Z,68.60
2023-05-14T01:44:30.058Z,66.40
2023-05-14T01:45:30.069Z,69.71
2023-05-14T01:46:30.114Z,69.75
2023-05-14T01:47:30.174Z,68.26
2023-05-14T01:48:30.187Z,65.89
2023-05-14T01:49:30.185Z,68.31
2023-05-14T01:50:30.209Z,68.45
2023-05-14T01:51:30.254Z,66.48
2023-05-14T01:52:30.264Z,68.30
2023-05-14T01:53:30.276Z,68.56
2023-05-14T01:54:30.275Z,67.83
2023-05-14T01:55:30.295Z,66.85
2023-05-14T01:56:30.273Z,69.16
2023-05-14T01:57:30.319Z,68.66
2023-05-14T01:58:30.330Z,67.96
2023-05-14T01:59:30.375Z,69.23
2023-05-14T02:00:30.348Z,67.43
2023-05-14T02:01:30.450Z,67.67
2023-05-14T02:02:30.409Z,67.50
2023-05-14T02:03:30.426Z,66.02
2023-05-14T02:04:30.418Z,68.19
2023-05-14T02:05:30.427Z,69.35
2023-05-14T02:06:30.430Z,65.65
2023-05-14T02:07:30.452Z,66.80
2023-05-14T02:08:30.452Z,67.05
2023-05-14T02:09:30.448Z,65.66
2023-05-14T02:10:30.508Z,68.23
2023-05-14T02:11:30.503Z,66.88
2023-05-14T02:12:30.528Z,67.25
2023-05-14T02:13:30.525Z,70.51
2023-05-14T02:14:30.547Z,69.01
2023-05-14T02:15:30.538Z,64.61
2023-05-14T02:16:30.615Z,66.21
2023-05-14T02:17:30.542Z,67.93
2023-05-14T02:18:30.577Z,62.67
2023-05-14T02:19:30.521Z,64.72
2023-05-14T02:20:30.530Z,69.13
2023-05-14T02:21:30.524Z,65.64
2023-05-14T02:22:30.540Z,65.33
2023-05-14T02:23:40.519Z,68.69
2023-05-14T02:24:31.537Z,68.75
2023-05-14T02:25:30.517Z,69.00
2023-05-14T02:26:30.508Z,69.01
2023-05-14T02:27:30.502Z,68.87
2023-05-14T02:28:30.488Z,66.23
2023-05-14T02:29:30.503Z,69.46
2023-05-14T02:30:30.475Z,66.49
2023-05-14T02:31:30.540Z,68.54
2023-05-14T02:32:30.513Z,68.99
2023-05-14T02:33:30.494Z,68.21
2023-05-14T02:34:30.511Z,67.61
2023-05-14T02:35:30.557Z,68.38
2023-05-14T02:36:30.611Z,67.68
2023-05-14T02:37:30.639Z,66.41
2023-05-14T02:38:30.696Z,62.29
2023-05-14T02:39:30.744Z,66.51
2023-05-14T02:40:30.768Z,65.10
2023-05-14T02:41:30.851Z,67.58
2023-05-14T02:42:30.815Z,64.33
2023-05-14T02:43:30.838Z,67.69
2023-05-14T02:44:30.857Z,64.35
2023-05-14T02:45:30.901Z,67.76
2023-05-14T02:46:30.935Z,67.64
2023-05-14T02:47:30.970Z,65.41
2023-05-14T02:48:30.960Z,65.42
2023-05-14T02:49:30.987Z,64.18
2023-05-14T02:50:31.005Z,62.27
2023-05-14T02:51:31.024Z,66.00
2023-05-14T02:52:31.051Z,63.73
2023-05-14T02:53:31.084Z,65.87
2023-05-14T02:54:31.095Z,64.45
2023-05-14T02:55:31.116Z,62.29
2023-05-14T02:56:31.126Z,59.38
2023-05-14T02:57:31.125Z,66.63
2023-05-14T02:58:31.176Z,63.43
2023-05-14T02:59:31.161Z,65.34
2023-05-14T03:00:31.191Z,65.04
2023-05-14T03:01:31.190Z,68.02
2023-05-14T03:02:31.273Z,64.50
2023-05-14T03:03:31.233Z,64.07
2023-05-14T03:04:31.270Z,65.44
2023-05-14T03:05:31.245Z,64.94
2023-05-14T03:06:31.283Z,61.78
2023-05-14T03:07:31.279Z,65.13
2023-05-14T03:08:31.315Z,66.44
2023-05-14T03:09:31.299Z,64.28
2023-05-14T03:10:31.303Z,64.99
2023-05-14T03:11:31.308Z,61.36
2023-05-14T03:12:31.346Z,65.21
2023-05-14T03:13:31.364Z,66.57
2023-05-14T03:14:31.372Z,62.85
2023-05-14T03:15:31.390Z,64.54
2023-05-14T03:16:31.437Z,66.21
2023-05-14T03:17:31.428Z,64.29
2023-05-14T03:18:31.421Z,66.05
2023-05-14T03:19:31.418Z,64.75
2023-05-14T03:20:31.426Z,64.52
2023-05-14T03:21:31.413Z,64.68
2023-05-14T03:22:31.416Z,62.76
2023-05-14T03:23:31.442Z,64.63
2023-05-14T03:24:31.432Z,58.40
2023-05-14T03:25:31.445Z,64.91
2023-05-14T03:26:31.434Z,62.79
2023-05-14T03:27:31.418Z,65.82
2023-05-14T03:28:31.404Z,61.41
2023-05-14T03:29:31.386Z,63.08
2023-05-14T03:30:31.423Z,62.70
2023-05-14T03:31:31.366Z,64.44
2023-05-14T03:32:31.370Z,61.55
2023-05-14T03:33:31.366Z,63.71
2023-05-14T03:34:31.377Z,62.48
2023-05-14T03:35:31.362Z,65.56
2023-05-14T03:36:31.379Z,62.09
2023-05-14T03:37:31.354Z,63.75
2023-05-14T03:38:31.409Z,62.75
2023-05-14T03:39:31.351Z,62.66
2023-05-14T03:40:31.362Z,61.81
2023-05-14T03:41:31.359Z,63.93
2023-05-14T03:42:31.404Z,63.84
2023-05-14T03:43:31.388Z,63.48
2023-05-14T03:44:31.410Z,55.89
2023-05-14T03:45:31.400Z,62.58
2023-05-14T03:46:31.432Z,62.40
2023-05-14T03:47:31.446Z,62.63
2023-05-14T03:48:31.476Z,64.45
2023-05-14T03:49:31.446Z,62.85
2023-05-14T03:50:31.462Z,63.93
2023-05-14T03:51:31.429Z,61.45
2023-05-14T03:52:31.450Z,63.02
2023-05-14T03:53:31.402Z,61.82
2023-05-14T03:54:31.414Z,63.16
2023-05-14T03:55:31.407Z,62.23
2023-05-14T03:56:31.419Z,64.06
2023-05-14T03:57:31.426Z,59.02
2023-05-14T03:58:31.432Z,63.17
2023-05-14T03:59:31.446Z,61.84
2023-05-14T04:00:31.440Z,57.68
2023-05-14T04:01:31.419Z,61.80
2023-05-14T04:02:31.470Z,59.37
2023-05-14T04:03:31.711Z,63.27
2023-05-14T04:04:31.432Z,58.90
2023-05-14T04:05:31.419Z,62.90
2023-05-14T04:06:31.392Z,61.04
2023-05-14T04:07:31.420Z,61.62
2023-05-14T04:08:31.409Z,61.58
2023-05-14T04:09:31.434Z,61.89
2023-05-14T04:10:31.403Z,63.14
2023-05-14T04:11:31.415Z,59.13
2023-05-14T04:12:31.380Z,61.52
2023-05-14T04:13:31.377Z,62.46
2023-05-14T04:14:31.381Z,60.46
2023-05-14T04:15:31.390Z,62.31
2023-05-14T04:16:31.458Z,62.74
2023-05-14T04:17:31.419Z,60.54
2023-05-14T04:18:31.390Z,61.40
2023-05-14T04:19:31.369Z,58.98
2023-05-14T04:20:31.361Z,60.78
2023-05-14T04:21:31.355Z,62.14
2023-05-14T04:22:31.359Z,57.33
2023-05-14T04:23:31.338Z,61.92
2023-05-14T04:24:31.341Z,60.44
2023-05-14T04:25:31.305Z,60.79
2023-05-14T04:26:31.457Z,60.12
2023-05-14T04:27:31.338Z,57.78
2023-05-14T04:28:31.318Z,60.80
2023-05-14T04:29:31.309Z,62.39
2023-05-14T04:30:31.311Z,61.67
2023-05-14T04:31:31.312Z,60.49
2023-05-14T04:32:31.350Z,60.36
2023-05-14T04:33:31.320Z,61.02
2023-05-14T04:34:31.304Z,61.46
2023-05-14T04:35:31.302Z,62.20
2023-05-14T04:36:31.301Z,59.83
2023-05-14T04:37:31.295Z,61.58
2023-05-14T04:38:31.265Z,61.78
2023-05-14T04:39:31.283Z,60.80
2023-05-14T04:40:31.258Z,60.00
2023-05-14T04:41:31.258Z,59.43
2023-05-14T04:42:31.359Z,60.08
2023-05-14T04:43:31.233Z,59.94
2023-05-14T04:44:31.215Z,59.05
2023-05-14T04:45:34.060Z,57.67
2023-05-14T04:46:31.296Z,61.27
2023-05-14T04:47:31.221Z,59.81
2023-05-14T04:48:31.175Z,58.12
2023-05-14T04:49:31.118Z,59.80
2023-05-14T04:50:31.144Z,58.20
2023-05-14T04:51:31.088Z,61.14
2023-05-14T04:52:31.058Z,58.51
2023-05-14T04:53:31.021Z,59.65
2023-05-14T04:54:31.073Z,59.15
2023-05-14T04:55:30.988Z,58.66
2023-05-14T04:56:30.972Z,59.17
2023-05-14T04:57:30.943Z,59.12
2023-05-14T04:58:32.841Z,59.73
2023-05-14T04:59:30.900Z,59.93
2023-05-14T05:00:30.853Z,60.02
2023-05-14T05:01:30.921Z,60.26
2023-05-14T05:02:30.822Z,60.34
2023-05-14T05:03:30.868Z,57.68
2023-05-14T05:04:30.753Z,58.65
2023-05-14T05:05:30.734Z,58.35
2023-05-14T05:06:30.731Z,56.21
2023-05-14T05:07:30.696Z,59.01
2023-05-14T05:08:30.686Z,57.11
2023-05-14T05:09:30.639Z,60.74
2023-05-14T05:10:30.622Z,60.59
2023-05-14T05:11:30.605Z,58.01
2023-05-14T05:12:30.581Z,58.53
2023-05-14T05:13:30.557Z,59.12
2023-05-14T05:14:30.553Z,59.85
2023-05-14T05:15:30.544Z,55.16
2023-05-14T05:16:30.526Z,57.79
2023-05-14T05:17:30.616Z,57.97
2023-05-14T05:18:30.497Z,58.20
2023-05-14T05:19:42.467Z,57.96
2023-05-14T05:20:31.425Z,58.20
2023-05-14T05:21:30.397Z,58.79
2023-05-14T05:22:30.376Z,58.82
2023-05-14T05:23:30.349Z,58.86
2023-05-14T05:24:30.345Z,60.18
2023-05-14T05:25:30.312Z,58.61
2023-05-14T05:26:30.327Z,58.26
2023-05-14T05:27:30.284Z,58.86
2023-05-14T05:28:30.273Z,56.33
2023-05-14T05:29:30.235Z,54.37
2023-05-14T05:30:30.226Z,57.70
2023-05-14T05:31:30.265Z,57.35
2023-05-14T05:32:30.219Z,56.86
2023-05-14T05:33:30.233Z,54.88
2023-05-14T05:34:30.222Z,57.30
2023-05-14T05:35:30.242Z,57.47
2023-05-14T05:36:30.236Z,56.01
2023-05-14T05:37:30.229Z,57.88
2023-05-14T05:38:30.213Z,53.26
2023-05-14T05:39:30.225Z,55.66
2023-05-14T05:40:30.217Z,57.51
2023-05-14T05:41:30.251Z,56.57
2023-05-14T05:42:30.240Z,56.64
2023-05-14T05:43:30.265Z,55.97
2023-05-14T05:44:30.275Z,55.78
2023-05-14T05:45:30.286Z,57.70
2023-05-14T05:46:30.335Z,56.66
2023-05-14T05:47:30.288Z,54.42
2023-05-14T05:48:30.319Z,57.73
2023-05-14T05:49:30.295Z,56.27
2023-05-14T05:50:30.317Z,54.60
2023-05-14T05:51:30.304Z,56.67
2023-05-14T05:52:30.346Z,56.35
2023-05-14T05:53:30.323Z,56.53
2023-05-14T05:54:30.342Z,55.12
2023-05-14T05:55:30.364Z,54.11
2023-05-14T05:56:30.376Z,53.67
2023-05-14T05:57:30.491Z,55.83
2023-05-14T05:58:30.424Z,57.14
2023-05-14T05:59:30.427Z,54.27
2023-05-14T06:00:30.433Z,55.92
2023-05-14T06:01:30.477Z,55.46
2023-05-14T06:02:30.665Z,49.96
2023-05-14T06:03:30.522Z,53.97
2023-05-14T06:04:30.503Z,56.42
2023-05-14T06:05:30.591Z,55.59
2023-05-14T06:06:30.503Z,54.32
2023-05-14T06:07:30.489Z,55.07
2023-05-14T06:08:30.488Z,55.14
2023-05-14T06:09:30.495Z,51.32
2023-05-14T06:10:30.488Z,53.10
2023-05-14T06:11:30.478Z,53.92
2023-05-14T06:12:30.483Z,55.79
2023-05-14T06:13:30.465Z,53.86
2023-05-14T06:14:30.468Z,55.88
2023-05-14T06:15:30.458Z,56.21
2023-05-14T06:16:30.511Z,55.00
2023-05-14T06:17:30.471Z,53.54
2023-05-14T06:18:30.492Z,55.69
2023-05-14T06:19:30.441Z,53.79
2023-05-14T06:20:30.478Z,53.84
2023-05-14T06:21:30.443Z,54.69
2023-05-14T06:22:30.454Z,55.25
2023-05-14T06:23:30.496Z,54.79
2023-05-14T06:24:30.474Z,53.63
2023-05-14T06:25:30.484Z,53.10
2023-05-14T06:26:30.485Z,55.61
2023-05-14T06:27:30.497Z,52.89
2023-05-14T06:28:30.486Z,55.16
2023-05-14T06:29:30.516Z,50.27
2023-05-14T06:30:30.501Z,53.69
2023-05-14T06:31:30.606Z,52.67
2023-05-14T06:32:30.514Z,53.86
2023-05-14T06:33:30.543Z,54.81
2023-05-14T06:34:30.511Z,54.51
2023-05-14T06:35:30.494Z,54.36
2023-05-14T06:36:30.510Z,54.01
2023-05-14T06:37:30.510Z,50.51
2023-05-14T06:38:30.528Z,52.52
2023-05-14T06:39:30.534Z,55.82
2023-05-14T06:40:30.546Z,54.58
2023-05-14T06:41:30.536Z,53.68
2023-05-14T06:42:30.555Z,56.83
2023-05-14T06:43:30.536Z,53.92
2023-05-14T06:44:30.567Z,54.86
2023-05-14T06:45:32.428Z,53.02
2023-05-14T06:46:30.540Z,51.37
2023-05-14T06:47:30.510Z,56.38
2023-05-14T06:48:30.484Z,55.84
2023-05-14T06:49:30.430Z,52.74
2023-05-14T06:50:30.409Z,53.71
2023-05-14T06:51:30.381Z,53.42
2023-05-14T06:52:30.363Z,50.63
2023-05-14T06:53:30.349Z,56.16
2023-05-14T06:54:30.323Z,53.51
2023-05-14T06:55:30.332Z,52.29
2023-05-14T06:56:30.286Z,53.26
2023-05-14T06:57:30.281Z,55.33
2023-05-14T06:58:30.247Z,54.83
2023-05-14T06:59:30.219Z,52.43
2023-05-14T07:00:30.201Z,53.63
2023-05-14T07:01:30.242Z,51.86
2023-05-14T07:02:30.189Z,55.87
2023-05-14T07:03:30.143Z,54.80
2023-05-14T07:04:30.153Z,50.90
2023-05-14T07:05:30.097Z,54.93
2023-05-14T07:06:30.078Z,55.73
2023-05-14T07:07:30.058Z,54.92
2023-05-14T07:08:30.033Z,55.64
2023-05-14T07:09:30.013Z,51.11
2023-05-14T07:10:29.997Z,53.13
2023-05-14T07:11:29.966Z,49.75
2023-05-14T07:12:29.961Z,54.78
2023-05-14T07:13:29.929Z,53.70
2023-05-14T07:14:29.933Z,53.30
2023-05-14T07:15:29.892Z,52.37
2023-05-14T07:16:29.923Z,50.95
2023-05-14T07:17:29.907Z,47.47
2023-05-14T07:18:29.905Z,54.15
2023-05-14T07:19:29.820Z,51.57
2023-05-14T07:20:29.826Z,50.60
2023-05-14T07:21:29.812Z,51.92
2023-05-14T07:22:29.772Z,51.63
2023-05-14T07:23:29.749Z,53.41
2023-05-14T07:24:29.732Z,49.04
2023-05-14T07:25:29.710Z,50.19
2023-05-14T07:26:29.685Z,52.90
2023-05-14T07:27:29.689Z,51.84
2023-05-14T07:28:29.622Z,47.27
2023-05-14T07:29:29.606Z,51.96
2023-05-14T07:30:29.565Z,50.05
2023-05-14T07:31:29.599Z,47.65
2023-05-14T07:32:29.504Z,47.89
2023-05-14T07:33:29.480Z,45.26
2023-05-14T07:34:29.430Z,49.45
2023-05-14T07:35:29.400Z,50.85
2023-05-14T07:36:29.371Z,46.24
2023-05-14T07:37:29.356Z,49.45
2023-05-14T07:38:29.310Z,46.90
2023-05-14T07:39:29.286Z,47.47
2023-05-14T07:40:29.255Z,41.67
2023-05-14T07:41:29.255Z,45.13
2023-05-14T07:43:29.171Z,49.34
2023-05-14T07:44:29.173Z,48.83
2023-05-14T07:45:29.133Z,45.19
2023-05-14T07:46:29.350Z,46.47
2023-05-14T07:47:29.127Z,46.32
2023-05-14T07:48:29.081Z,45.44
2023-05-14T07:49:28.983Z,49.29
2023-05-14T07:50:28.953Z,50.00
2023-05-14T07:51:28.943Z,46.42
2023-05-14T07:52:28.958Z,47.51
2023-05-14T07:53:28.916Z,47.94
2023-05-14T07:54:28.940Z,48.49
2023-05-14T07:55:28.869Z,46.63
2023-05-14T07:56:28.842Z,47.09
2023-05-14T07:57:28.845Z,46.48
2023-05-14T07:58:28.821Z,48.34
2023-05-14T07:59:28.814Z,47.84
2023-05-14T08:00:28.776Z,46.62
2023-05-14T08:01:28.776Z,46.22
2023-05-14T08:02:28.850Z,45.39
2023-05-14T08:03:28.808Z,43.71
2023-05-14T08:04:28.791Z,45.93
2023-05-14T08:05:28.704Z,45.63
2023-05-14T08:06:28.697Z,43.84
2023-05-14T08:07:28.690Z,46.31
2023-05-14T08:08:28.668Z,46.46
2023-05-14T08:09:28.654Z,44.66
2023-05-14T08:10:28.847Z,47.16
2023-05-14T08:11:28.620Z,47.73
2023-05-14T08:12:28.602Z,47.68
2023-05-14T08:13:28.581Z,44.80
2023-05-14T08:14:28.584Z,46.80
2023-05-14T08:15:28.541Z,44.99
2023-05-14T08:16:28.582Z,44.55
2023-05-14T08:17:28.549Z,41.63
2023-05-14T08:18:28.503Z,46.61
2023-05-14T08:19:28.526Z,46.81
2023-05-14T08:20:28.575Z,47.34
2023-05-14T08:21:28.440Z,44.66
2023-05-14T08:22:28.439Z,45.46
2023-05-14T08:23:28.415Z,45.13
2023-05-14T08:24:28.384Z,43.31
2023-05-14T08:25:28.380Z,42.63
2023-05-14T08:26:28.338Z,43.11
2023-05-14T08:27:28.351Z,39.88
2023-05-14T08:28:28.311Z,42.35
2023-05-14T08:29:28.288Z,44.28
2023-05-14T08:30:28.527Z,43.28
2023-05-14T08:31:28.341Z,42.43
2023-05-14T08:32:28.273Z,43.58
2023-05-14T08:33:28.216Z,43.52
2023-05-14T08:34:28.191Z,44.14
2023-05-14T08:35:28.166Z,41.81
2023-05-14T08:36:28.156Z,45.43
2023-05-14T08:37:28.128Z,43.56
2023-05-14T08:38:28.100Z,41.86
2023-05-14T08:39:28.068Z,43.12
2023-05-14T08:40:28.101Z,43.00
2023-05-14T08:41:28.019Z,43.84
2023-05-14T08:42:28.003Z,40.43
2023-05-14T08:43:27.954Z,42.34
2023-05-14T08:44:27.920Z,38.68
2023-05-14T08:45:27.895Z,43.21
2023-05-14T08:46:27.899Z,42.30
2023-05-14T08:47:27.940Z,39.83
2023-05-14T08:48:27.992Z,39.67
2023-05-14T08:49:27.888Z,46.04
2023-05-14T08:50:28.061Z,43.78
2023-05-14T08:51:27.886Z,45.82
2023-05-14T08:52:27.893Z,42.40
2023-05-14T08:53:27.887Z,46.89
2023-05-14T08:54:27.877Z,47.71
2023-05-14T08:55:27.877Z,45.70
2023-05-14T08:56:27.855Z,43.58
2023-05-14T08:57:27.857Z,44.27
2023-05-14T08:58:27.864Z,44.99
2023-05-14T08:59:27.851Z,45.13
2023-05-14T09:00:27.984Z,50.49
2023-05-14T09:01:27.856Z,44.44
2023-05-14T09:02:27.866Z,45.76
2023-05-14T09:03:27.868Z,47.27
2023-05-14T09:04:27.838Z,45.04
2023-05-14T09:05:27.851Z,45.60
2023-05-14T09:06:27.831Z,49.39
2023-05-14T09:07:27.840Z,48.19
2023-05-14T09:08:27.820Z,46.54
2023-05-14T09:09:27.822Z,47.54
2023-05-14T09:10:27.973Z,49.17
2023-05-14T09:11:27.827Z,45.25
2023-05-14T09:12:27.810Z,48.01
2023-05-14T09:13:28.372Z,48.99
2023-05-14T09:14:27.817Z,49.68
2023-05-14T09:15:27.796Z,53.56
2023-05-14T09:16:27.857Z,49.09
2023-05-14T09:17:27.859Z,48.00
2023-05-14T09:18:27.895Z,48.66
2023-05-14T09:19:27.790Z,51.33
2023-05-14T09:20:27.983Z,50.37
2023-05-14T09:21:27.798Z,49.28
2023-05-14T09:22:27.793Z,48.41
2023-05-14T09:23:27.822Z,49.11
2023-05-14T09:24:27.794Z,49.26
2023-05-14T09:25:27.791Z,52.16
2023-05-14T09:26:27.803Z,53.28
2023-05-14T09:27:27.801Z,49.56
2023-05-14T09:28:27.790Z,50.88
2023-05-14T09:29:27.782Z,50.17
2023-05-14T09:30:27.807Z,49.50
2023-05-14T09:31:27.830Z,53.30
2023-05-14T09:32:27.832Z,49.54
2023-05-14T09:33:27.804Z,53.75
2023-05-14T09:34:27.811Z,49.92
2023-05-14T09:35:27.814Z,49.91
2023-05-14T09:36:27.807Z,51.18
2023-05-14T09:37:27.813Z,51.00
2023-05-14T09:38:27.803Z,54.01
2023-05-14T09:39:27.831Z,50.40
2023-05-14T09:40:28.243Z,52.76
2023-05-14T09:41:27.842Z,49.90
2023-05-14T09:42:27.855Z,50.17
2023-05-14T09:43:27.859Z,49.51
2023-05-14T09:44:27.869Z,51.97
2023-05-14T09:45:27.884Z,53.37
2023-05-14T09:46:27.888Z,55.12
2023-05-14T09:47:27.973Z,53.48
2023-05-14T09:48:27.916Z,54.12
2023-05-14T09:49:27.916Z,54.06
2023-05-14T09:50:27.914Z,52.37
2023-05-14T09:51:27.915Z,53.40
2023-05-14T09:52:27.936Z,53.45
2023-05-14T09:53:27.941Z,53.08
2023-05-14T09:54:27.943Z,54.91
2023-05-14T09:55:27.954Z,50.91
2023-05-14T09:56:27.949Z,52.38
2023-05-14T09:57:27.960Z,52.85
2023-05-14T09:58:27.952Z,54.41
2023-05-14T09:59:27.962Z,49.24
2023-05-14T10:00:27.951Z,49.83
2023-05-14T10:01:28.014Z,50.82
2023-05-14T10:02:28.019Z,52.21
2023-05-14T10:03:27.988Z,52.87
2023-05-14T10:04:28.017Z,53.91
2023-05-14T10:05:27.996Z,53.41
2023-05-14T10:06:27.972Z,53.32
2023-05-14T10:07:27.991Z,53.04
2023-05-14T10:08:28.008Z,54.90
2023-05-14T10:09:28.017Z,53.27
2023-05-14T10:10:28.308Z,54.42
2023-05-14T10:11:28.046Z,54.65
2023-05-14T10:12:28.047Z,54.23
2023-05-14T10:13:28.047Z,55.41
2023-05-14T10:14:28.054Z,54.76
2023-05-14T10:15:28.077Z,55.21
2023-05-14T10:16:28.105Z,55.05
2023-05-14T10:17:28.119Z,53.75
2023-05-14T10:18:28.116Z,57.03
2023-05-14T10:19:28.352Z,55.76
2023-05-14T10:20:28.111Z,56.92
2023-05-14T10:21:28.132Z,55.36
2023-05-14T10:22:28.140Z,55.99
2023-05-14T10:23:28.146Z,56.09
2023-05-14T10:24:28.142Z,57.35
2023-05-14T10:25:28.146Z,55.57
2023-05-14T10:26:28.156Z,57.64
2023-05-14T10:27:28.181Z,55.92
2023-05-14T10:28:28.169Z,54.69
2023-05-14T10:29:28.174Z,56.96
2023-05-14T10:30:28.194Z,55.63
2023-05-14T10:31:28.244Z,52.58
2023-05-14T10:32:28.238Z,57.27
2023-05-14T10:33:28.213Z,59.56
2023-05-14T10:34:28.219Z,58.66
2023-05-14T10:35:28.204Z,58.20
2023-05-14T10:36:28.231Z,58.08
2023-05-14T10:37:28.232Z,53.21
2023-05-14T10:38:28.240Z,54.66
2023-05-14T10:39:28.216Z,54.16
2023-05-14T10:40:28.257Z,59.57
2023-05-14T10:41:28.236Z,56.47
2023-05-14T10:42:28.249Z,55.65
2023-05-14T10:43:28.223Z,54.79
2023-05-14T10:44:28.248Z,57.39
2023-05-14T10:45:28.220Z,56.28
2023-05-14T10:46:28.250Z,57.54
2023-05-14T10:47:28.220Z,55.61
2023-05-14T10:48:28.221Z,60.10
2023-05-14T10:49:39.824Z,58.36
2023-05-14T10:50:29.196Z,58.57
2023-05-14T10:51:28.208Z,58.64
2023-05-14T10:52:28.153Z,59.12
2023-05-14T10:53:28.120Z,60.59
2023-05-14T10:54:28.101Z,55.68
2023-05-14T10:55:28.087Z,56.92
2023-05-14T10:56:28.056Z,55.17
2023-05-14T10:57:28.041Z,57.69
2023-05-14T10:58:28.011Z,58.49
2023-05-14T10:59:28.008Z,55.22
2023-05-14T11:00:27.977Z,56.95
2023-05-14T11:01:28.010Z,57.28
2023-05-14T11:02:27.947Z,58.26
2023-05-14T11:03:27.918Z,57.69
2023-05-14T11:04:27.862Z,56.32
2023-05-14T11:05:27.851Z,54.08
2023-05-14T11:06:27.905Z,54.62
2023-05-14T11:07:27.823Z,54.57
2023-05-14T11:08:29.352Z,56.74
2023-05-14T11:09:27.813Z,58.92
2023-05-14T11:10:27.829Z,54.99
2023-05-14T11:11:27.804Z,51.70
2023-05-14T11:12:27.820Z,54.11
2023-05-14T11:13:27.806Z,56.13
2023-05-14T11:14:27.817Z,55.14
2023-05-14T11:15:27.808Z,55.31
2023-05-14T11:16:27.814Z,56.67
2023-05-14T11:17:27.841Z,53.41
2023-05-14T11:18:27.877Z,55.38
2023-05-14T11:19:27.821Z,50.25
2023-05-14T11:20:27.887Z,55.15
2023-05-14T11:21:27.862Z,52.26
2023-05-14T11:22:27.818Z,52.43
2023-05-14T11:23:27.818Z,55.39
2023-05-14T11:24:27.815Z,52.96
2023-05-14T11:25:27.821Z,50.72
2023-05-14T11:26:27.872Z,53.46
2023-05-14T11:27:27.839Z,51.84
2023-05-14T11:28:27.844Z,54.49
2023-05-14T11:29:27.851Z,54.35
2023-05-14T11:30:27.850Z,53.09
2023-05-14T11:31:27.912Z,54.20
2023-05-14T11:32:27.922Z,53.81
2023-05-14T11:33:27.862Z,54.77
2023-05-14T11:34:27.870Z,55.86
2023-05-14T11:35:27.864Z,54.00
2023-05-14T11:36:27.886Z,54.95
2023-05-14T11:37:27.874Z,57.27
2023-05-14T11:38:27.902Z,54.19
2023-05-14T11:39:27.912Z,58.64
2023-05-14T11:40:27.906Z,53.44
2023-05-14T11:41:27.888Z,54.51
2023-05-14T11:42:27.910Z,55.28
2023-05-14T11:43:27.903Z,54.12
2023-05-14T11:44:27.926Z,53.01
2023-05-14T11:45:27.912Z,55.46
2023-05-14T11:46:28.008Z,52.36
2023-05-14T11:47:27.976Z,56.35
2023-05-14T11:48:27.937Z,56.47
2023-05-14T11:49:27.928Z,54.26
2023-05-14T11:50:27.947Z,55.46
2023-05-14T11:51:27.975Z,54.86
2023-05-14T11:52:27.964Z,53.55
2023-05-14T11:53:27.965Z,57.38
2023-05-14T11:54:27.967Z,54.62
2023-05-14T11:55:27.954Z,56.12
2023-05-14T11:56:27.961Z,54.46
2023-05-14T11:57:27.960Z,59.03
2023-05-14T11:58:27.987Z,57.47
2023-05-14T11:59:27.987Z,60.26
2023-05-14T12:00:28.011Z,57.38
2023-05-14T12:01:27.997Z,57.53
2023-05-14T12:02:28.100Z,58.24
2023-05-14T12:03:28.172Z,58.59
2023-05-14T12:04:28.036Z,59.07
2023-05-14T12:05:28.013Z,58.07
2023-05-14T12:06:28.021Z,59.25
2023-05-14T12:07:28.030Z,56.25
2023-05-14T12:08:28.048Z,57.72
2023-05-14T12:09:28.050Z,56.45
2023-05-14T12:10:28.056Z,59.59
2023-05-14T12:11:28.067Z,57.12
2023-05-14T12:12:28.087Z,57.98
2023-05-14T12:13:28.092Z,56.40
2023-05-14T12:14:28.169Z,60.29
2023-05-14T12:15:28.103Z,58.87
2023-05-14T12:16:28.130Z,56.28
2023-05-14T12:17:28.143Z,62.20
2023-05-14T12:18:28.171Z,58.95
2023-05-14T12:19:28.247Z,59.19
2023-05-14T12:20:28.139Z,62.57
2023-05-14T12:21:28.153Z,61.39
2023-05-14T12:22:28.148Z,61.72
2023-05-14T12:23:28.173Z,57.49
2023-05-14T12:24:28.192Z,61.14
2023-05-14T12:25:28.191Z,59.57
2023-05-14T12:26:28.178Z,58.36
2023-05-14T12:27:28.182Z,57.34
2023-05-14T12:28:28.180Z,59.75
2023-05-14T12:29:28.186Z,61.35
2023-05-14T12:30:28.274Z,60.23
2023-05-14T12:31:28.200Z,57.97
2023-05-14T12:32:28.214Z,56.10
2023-05-14T12:33:28.194Z,57.36
2023-05-14T12:34:28.240Z,52.11
2023-05-14T12:35:28.214Z,56.02
2023-05-14T12:36:28.202Z,59.03
2023-05-14T12:37:30.063Z,58.99
2023-05-14T12:38:28.161Z,57.83
2023-05-14T12:39:28.145Z,59.36
2023-05-14T12:40:28.093Z,58.70
2023-05-14T12:41:28.061Z,59.77
2023-05-14T12:42:28.006Z,55.24
2023-05-14T12:43:27.982Z,58.50
2023-05-14T12:44:28.070Z,59.15
2023-05-14T12:45:27.910Z,57.44
2023-05-14T12:46:27.916Z,58.92
2023-05-14T12:47:27.862Z,57.70
2023-05-14T12:48:27.815Z,64.14
2023-05-14T12:49:27.768Z,60.83
2023-05-14T12:50:27.748Z,57.45
2023-05-14T12:51:27.721Z,60.71
2023-05-14T12:53:28.641Z,61.92
2023-05-14T12:54:27.627Z,62.28